sensor_id;sensor_type;location;lat;lon;timestamp;P1;durP1;ratioP1;P2;durP2;ratioP2
21800;SDS011;11062;51.164;16.924;2023-03-01T00:02:04;293.52;;;110.57;;
21800;SDS011;11062;51.164;16.924;2023-03-01T00:04:30;295.85;;;112.10;;
21800;SDS011;11062;51.164;16.924;2023-03-01T00:06:56;298.20;;;109.60;;
21800;SDS011;11062;51.164;16.924;2023-03-01T00:09:22;317.08;;;112.20;;
21800;SDS011;11062;51.164;16.924;2023-03-01T00:11:49;306.77;;;110.85;;
21800;SDS011;11062;51.164;16.924;2023-03-01T00:14:15;296.63;;;109.03;;
21800;SDS011;11062;51.164;16.924;2023-03-01T00:16:43;292.65;;;105.43;;
21800;SDS011;11062;51.164;16.924;2023-03-01T00:19:13;295.00;;;107.80;;
21800;SDS011;11062;51.164;16.924;2023-03-01T00:21:41;291.13;;;105.32;;
21800;SDS011;11062;51.164;16.924;2023-03-01T00:24:07;298.90;;;107.20;;
21800;SDS011;11062;51.164;16.924;2023-03-01T00:26:34;289.02;;;106.55;;
21800;SDS011;11062;51.164;16.924;2023-03-01T00:29:00;296.40;;;109.40;;
21800;SDS011;11062;51.164;16.924;2023-03-01T00:31:27;301.60;;;112.45;;
21800;SDS011;11062;51.164;16.924;2023-03-01T00:34:03;287.83;;;107.78;;
21800;SDS011;11062;51.164;16.924;2023-03-01T00:36:31;293.52;;;107.70;;
21800;SDS011;11062;51.164;16.924;2023-03-01T00:38:59;294.77;;;107.75;;
21800;SDS011;11062;51.164;16.924;2023-03-01T00:41:25;292.10;;;106.15;;
21800;SDS011;11062;51.164;16.924;2023-03-01T00:43:52;321.33;;;111.03;;
21800;SDS011;11062;51.164;16.924;2023-03-01T00:46:20;285.15;;;106.38;;
21800;SDS011;11062;51.164;16.924;2023-03-01T00:48:47;291.08;;;107.95;;
21800;SDS011;11062;51.164;16.924;2023-03-01T00:51:14;295.05;;;107.22;;
21800;SDS011;11062;51.164;16.924;2023-03-01T00:53:43;309.98;;;107.90;;
21800;SDS011;11062;51.164;16.924;2023-03-01T00:56:10;287.58;;;106.60;;
21800;SDS011;11062;51.164;16.924;2023-03-01T00:58:37;290.60;;;107.38;;
21800;SDS011;11062;51.164;16.924;2023-03-01T01:01:13;301.05;;;107.60;;
21800;SDS011;11062;51.164;16.924;2023-03-01T01:03:49;289.08;;;106.93;;
21800;SDS011;11062;51.164;16.924;2023-03-01T01:06:18;298.17;;;109.13;;
21800;SDS011;11062;51.164;16.924;2023-03-01T01:08:47;292.70;;;108.40;;
21800;SDS011;11062;51.164;16.924;2023-03-01T01:11:13;279.80;;;105.40;;
21800;SDS011;11062;51.164;16.924;2023-03-01T01:13:40;280.90;;;104.82;;
21800;SDS011;11062;51.164;16.924;2023-03-01T01:16:06;306.25;;;108.57;;
21800;SDS011;11062;51.164;16.924;2023-03-01T01:18:32;283.40;;;106.47;;
21800;SDS011;11062;51.164;16.924;2023-03-01T01:21:03;293.63;;;105.15;;
21800;SDS011;11062;51.164;16.924;2023-03-01T01:23:30;281.15;;;104.32;;
21800;SDS011;11062;51.164;16.924;2023-03-01T01:25:56;294.45;;;105.50;;
21800;SDS011;11062;51.164;16.924;2023-03-01T01:28:23;312.05;;;109.13;;
21800;SDS011;11062;51.164;16.924;2023-03-01T01:30:49;300.80;;;110.13;;
21800;SDS011;11062;51.164;16.924;2023-03-01T01:33:15;294.40;;;106.93;;
21800;SDS011;11062;51.164;16.924;2023-03-01T01:35:41;307.45;;;114.10;;
21800;SDS011;11062;51.164;16.924;2023-03-01T01:38:07;290.17;;;112.18;;
21800;SDS011;11062;51.164;16.924;2023-03-01T01:40:33;306.92;;;111.10;;
21800;SDS011;11062;51.164;16.924;2023-03-01T01:42:59;298.92;;;111.95;;
21800;SDS011;11062;51.164;16.924;2023-03-01T01:45:29;276.85;;;104.65;;
21800;SDS011;11062;51.164;16.924;2023-03-01T01:48:02;296.33;;;108.57;;
21800;SDS011;11062;51.164;16.924;2023-03-01T01:50:32;289.20;;;106.47;;
21800;SDS011;11062;51.164;16.924;2023-03-01T01:53:05;294.42;;;108.15;;
21800;SDS011;11062;51.164;16.924;2023-03-01T01:55:35;283.98;;;105.18;;
21800;SDS011;11062;51.164;16.924;2023-03-01T01:58:04;289.15;;;105.40;;
21800;SDS011;11062;51.164;16.924;2023-03-01T02:00:33;283.02;;;105.55;;
21800;SDS011;11062;51.164;16.924;2023-03-01T02:03:00;301.48;;;110.53;;
21800;SDS011;11062;51.164;16.924;2023-03-01T02:08:16;291.48;;;105.72;;
21800;SDS011;11062;51.164;16.924;2023-03-01T02:10:44;296.27;;;108.80;;
21800;SDS011;11062;51.164;16.924;2023-03-01T02:13:11;281.38;;;104.85;;
21800;SDS011;11062;51.164;16.924;2023-03-01T02:15:38;288.00;;;105.80;;
21800;SDS011;11062;51.164;16.924;2023-03-01T02:18:05;294.65;;;106.35;;
21800;SDS011;11062;51.164;16.924;2023-03-01T02:20:35;281.75;;;104.07;;
21800;SDS011;11062;51.164;16.924;2023-03-01T02:23:10;298.80;;;106.18;;
21800;SDS011;11062;51.164;16.924;2023-03-01T02:25:41;287.30;;;104.93;;
21800;SDS011;11062;51.164;16.924;2023-03-01T02:28:38;276.15;;;102.65;;
21800;SDS011;11062;51.164;16.924;2023-03-01T02:31:07;309.65;;;107.03;;
21800;SDS011;11062;51.164;16.924;2023-03-01T02:33:52;273.00;;;101.75;;
21800;SDS011;11062;51.164;16.924;2023-03-01T02:36:20;289.10;;;106.85;;
21800;SDS011;11062;51.164;16.924;2023-03-01T02:38:56;278.95;;;105.82;;
21800;SDS011;11062;51.164;16.924;2023-03-01T02:41:24;312.65;;;106.82;;
21800;SDS011;11062;51.164;16.924;2023-03-01T02:43:53;285.85;;;103.85;;
21800;SDS011;11062;51.164;16.924;2023-03-01T02:46:21;289.42;;;106.28;;
21800;SDS011;11062;51.164;16.924;2023-03-01T02:48:56;283.60;;;105.70;;
21800;SDS011;11062;51.164;16.924;2023-03-01T02:56:51;285.65;;;106.10;;
21800;SDS011;11062;51.164;16.924;2023-03-01T02:59:18;299.73;;;106.32;;
21800;SDS011;11062;51.164;16.924;2023-03-01T03:01:47;284.02;;;104.47;;
21800;SDS011;11062;51.164;16.924;2023-03-01T03:04:14;293.13;;;104.53;;
21800;SDS011;11062;51.164;16.924;2023-03-01T03:06:46;289.55;;;105.43;;
21800;SDS011;11062;51.164;16.924;2023-03-01T03:09:13;283.55;;;104.15;;
21800;SDS011;11062;51.164;16.924;2023-03-01T03:11:40;316.30;;;110.75;;
21800;SDS011;11062;51.164;16.924;2023-03-01T03:14:08;294.98;;;107.32;;
21800;SDS011;11062;51.164;16.924;2023-03-01T03:16:44;303.75;;;108.82;;
21800;SDS011;11062;51.164;16.924;2023-03-01T03:19:12;344.75;;;121.35;;
21800;SDS011;11062;51.164;16.924;2023-03-01T03:21:38;288.52;;;106.63;;
21800;SDS011;11062;51.164;16.924;2023-03-01T03:24:04;276.25;;;104.70;;
21800;SDS011;11062;51.164;16.924;2023-03-01T03:26:30;288.77;;;104.78;;
21800;SDS011;11062;51.164;16.924;2023-03-01T03:28:56;296.00;;;106.63;;
21800;SDS011;11062;51.164;16.924;2023-03-01T03:31:23;299.70;;;106.20;;
21800;SDS011;11062;51.164;16.924;2023-03-01T03:33:49;282.73;;;103.05;;
21800;SDS011;11062;51.164;16.924;2023-03-01T03:36:21;297.13;;;105.70;;
21800;SDS011;11062;51.164;16.924;2023-03-01T03:38:49;284.10;;;104.28;;
21800;SDS011;11062;51.164;16.924;2023-03-01T03:41:15;294.27;;;105.78;;
21800;SDS011;11062;51.164;16.924;2023-03-01T03:43:42;267.50;;;101.50;;
21800;SDS011;11062;51.164;16.924;2023-03-01T03:46:08;288.58;;;105.38;;
21800;SDS011;11062;51.164;16.924;2023-03-01T03:48:36;270.42;;;102.75;;
21800;SDS011;11062;51.164;16.924;2023-03-01T03:51:04;289.08;;;105.85;;
21800;SDS011;11062;51.164;16.924;2023-03-01T03:53:31;290.30;;;105.50;;
21800;SDS011;11062;51.164;16.924;2023-03-01T03:55:57;266.80;;;104.25;;
21800;SDS011;11062;51.164;16.924;2023-03-01T03:58:24;315.98;;;109.78;;
21800;SDS011;11062;51.164;16.924;2023-03-01T04:00:53;287.42;;;105.95;;
21800;SDS011;11062;51.164;16.924;2023-03-01T04:03:21;316.75;;;114.07;;
21800;SDS011;11062;51.164;16.924;2023-03-01T04:05:50;350.50;;;125.50;;
21800;SDS011;11062;51.164;16.924;2023-03-01T04:08:20;334.27;;;117.53;;
21800;SDS011;11062;51.164;16.924;2023-03-01T04:10:48;290.23;;;107.13;;
21800;SDS011;11062;51.164;16.924;2023-03-01T04:13:18;287.08;;;106.35;;
21800;SDS011;11062;51.164;16.924;2023-03-01T04:15:49;278.17;;;104.65;;
21800;SDS011;11062;51.164;16.924;2023-03-01T04:18:16;300.15;;;107.53;;
21800;SDS011;11062;51.164;16.924;2023-03-01T04:20:43;307.75;;;106.00;;
21800;SDS011;11062;51.164;16.924;2023-03-01T04:23:13;298.50;;;104.80;;
21800;SDS011;11062;51.164;16.924;2023-03-01T04:25:48;304.63;;;106.85;;
21800;SDS011;11062;51.164;16.924;2023-03-01T04:30:55;314.23;;;110.07;;
21800;SDS011;11062;51.164;16.924;2023-03-01T04:33:23;309.95;;;107.88;;
21800;SDS011;11062;51.164;16.924;2023-03-01T04:35:49;284.48;;;119.40;;
21800;SDS011;11062;51.164;16.924;2023-03-01T04:38:15;294.27;;;106.05;;
21800;SDS011;11062;51.164;16.924;2023-03-01T04:40:42;295.15;;;112.55;;
21800;SDS011;11062;51.164;16.924;2023-03-01T04:43:09;333.73;;;119.18;;
21800;SDS011;11062;51.164;16.924;2023-03-01T04:45:36;316.25;;;110.43;;
21800;SDS011;11062;51.164;16.924;2023-03-01T04:48:02;313.73;;;113.03;;
21800;SDS011;11062;51.164;16.924;2023-03-01T04:50:29;316.45;;;131.13;;
21800;SDS011;11062;51.164;16.924;2023-03-01T04:52:55;303.33;;;116.68;;
21800;SDS011;11062;51.164;16.924;2023-03-01T04:55:27;316.52;;;115.47;;
21800;SDS011;11062;51.164;16.924;2023-03-01T04:57:53;315.98;;;123.20;;
21800;SDS011;11062;51.164;16.924;2023-03-01T05:00:19;318.75;;;117.80;;
21800;SDS011;11062;51.164;16.924;2023-03-01T05:02:50;313.02;;;116.13;;
21800;SDS011;11062;51.164;16.924;2023-03-01T05:07:56;319.17;;;116.50;;
21800;SDS011;11062;51.164;16.924;2023-03-01T05:10:23;305.63;;;109.10;;
21800;SDS011;11062;51.164;16.924;2023-03-01T05:12:50;336.33;;;125.60;;
21800;SDS011;11062;51.164;16.924;2023-03-01T05:15:17;322.40;;;115.68;;
21800;SDS011;11062;51.164;16.924;2023-03-01T05:17:43;309.75;;;108.82;;
21800;SDS011;11062;51.164;16.924;2023-03-01T05:20:10;307.70;;;110.45;;
21800;SDS011;11062;51.164;16.924;2023-03-01T05:22:36;314.60;;;110.90;;
21800;SDS011;11062;51.164;16.924;2023-03-01T05:25:02;301.88;;;113.07;;
21800;SDS011;11062;51.164;16.924;2023-03-01T05:27:29;322.35;;;114.63;;
21800;SDS011;11062;51.164;16.924;2023-03-01T05:29:55;349.17;;;119.00;;
21800;SDS011;11062;51.164;16.924;2023-03-01T05:32:21;348.30;;;118.57;;
21800;SDS011;11062;51.164;16.924;2023-03-01T05:34:47;280.75;;;105.90;;
21800;SDS011;11062;51.164;16.924;2023-03-01T05:37:13;300.15;;;109.15;;
21800;SDS011;11062;51.164;16.924;2023-03-01T05:39:39;310.40;;;107.90;;
21800;SDS011;11062;51.164;16.924;2023-03-01T05:42:09;305.42;;;119.00;;
21800;SDS011;11062;51.164;16.924;2023-03-01T05:44:36;301.15;;;114.85;;
21800;SDS011;11062;51.164;16.924;2023-03-01T05:47:02;289.83;;;122.07;;
21800;SDS011;11062;51.164;16.924;2023-03-01T05:49:28;300.00;;;110.78;;
21800;SDS011;11062;51.164;16.924;2023-03-01T05:51:55;297.20;;;114.05;;
21800;SDS011;11062;51.164;16.924;2023-03-01T05:54:21;317.48;;;108.93;;
21800;SDS011;11062;51.164;16.924;2023-03-01T05:56:47;312.27;;;114.10;;
21800;SDS011;11062;51.164;16.924;2023-03-01T05:59:13;299.95;;;110.88;;
21800;SDS011;11062;51.164;16.924;2023-03-01T06:01:41;311.65;;;115.40;;
21800;SDS011;11062;51.164;16.924;2023-03-01T06:04:07;365.58;;;141.38;;
21800;SDS011;11062;51.164;16.924;2023-03-01T06:06:33;317.23;;;110.75;;
21800;SDS011;11062;51.164;16.924;2023-03-01T06:09:02;322.98;;;132.70;;
21800;SDS011;11062;51.164;16.924;2023-03-01T06:11:29;317.38;;;120.43;;
21800;SDS011;11062;51.164;16.924;2023-03-01T06:13:55;313.83;;;119.53;;
21800;SDS011;11062;51.164;16.924;2023-03-01T06:16:20;320.00;;;112.60;;
21800;SDS011;11062;51.164;16.924;2023-03-01T06:18:46;326.40;;;113.07;;
21800;SDS011;11062;51.164;16.924;2023-03-01T06:21:12;350.95;;;118.65;;
21800;SDS011;11062;51.164;16.924;2023-03-01T06:23:38;350.35;;;119.13;;
21800;SDS011;11062;51.164;16.924;2023-03-01T06:26:07;349.90;;;118.03;;
21800;SDS011;11062;51.164;16.924;2023-03-01T06:28:34;356.40;;;119.35;;
21800;SDS011;11062;51.164;16.924;2023-03-01T06:31:00;357.05;;;125.75;;
21800;SDS011;11062;51.164;16.924;2023-03-01T06:33:26;362.20;;;125.15;;
21800;SDS011;11062;51.164;16.924;2023-03-01T06:35:55;382.88;;;141.55;;
21800;SDS011;11062;51.164;16.924;2023-03-01T06:38:22;362.42;;;134.13;;
21800;SDS011;11062;51.164;16.924;2023-03-01T06:40:53;359.38;;;136.02;;
21800;SDS011;11062;51.164;16.924;2023-03-01T06:43:20;354.05;;;134.35;;
21800;SDS011;11062;51.164;16.924;2023-03-01T06:45:46;345.42;;;133.88;;
21800;SDS011;11062;51.164;16.924;2023-03-01T06:48:12;339.77;;;132.02;;
21800;SDS011;11062;51.164;16.924;2023-03-01T06:50:38;330.85;;;123.75;;
21800;SDS011;11062;51.164;16.924;2023-03-01T06:53:03;328.63;;;132.38;;
21800;SDS011;11062;51.164;16.924;2023-03-01T06:55:30;323.38;;;119.07;;
21800;SDS011;11062;51.164;16.924;2023-03-01T06:57:56;340.17;;;122.63;;
21800;SDS011;11062;51.164;16.924;2023-03-01T07:00:23;326.63;;;121.72;;
21800;SDS011;11062;51.164;16.924;2023-03-01T07:02:50;321.33;;;116.78;;
21800;SDS011;11062;51.164;16.924;2023-03-01T07:05:16;331.45;;;131.02;;
21800;SDS011;11062;51.164;16.924;2023-03-01T07:07:42;342.70;;;130.15;;
21800;SDS011;11062;51.164;16.924;2023-03-01T07:10:08;342.02;;;126.65;;
21800;SDS011;11062;51.164;16.924;2023-03-01T07:12:35;387.50;;;142.07;;
21800;SDS011;11062;51.164;16.924;2023-03-01T07:15:01;378.38;;;133.15;;
21800;SDS011;11062;51.164;16.924;2023-03-01T07:17:26;383.77;;;141.93;;
21800;SDS011;11062;51.164;16.924;2023-03-01T07:19:52;367.58;;;136.13;;
21800;SDS011;11062;51.164;16.924;2023-03-01T07:22:18;391.55;;;148.45;;
21800;SDS011;11062;51.164;16.924;2023-03-01T07:24:44;377.88;;;141.77;;
21800;SDS011;11062;51.164;16.924;2023-03-01T07:27:10;370.17;;;134.27;;
21800;SDS011;11062;51.164;16.924;2023-03-01T07:29:36;378.17;;;136.35;;
21800;SDS011;11062;51.164;16.924;2023-03-01T07:32:02;387.85;;;133.35;;
21800;SDS011;11062;51.164;16.924;2023-03-01T07:34:29;365.52;;;128.90;;
21800;SDS011;11062;51.164;16.924;2023-03-01T07:36:55;392.00;;;137.30;;
21800;SDS011;11062;51.164;16.924;2023-03-01T07:39:21;337.52;;;121.22;;
21800;SDS011;11062;51.164;16.924;2023-03-01T07:41:48;345.65;;;119.75;;
21800;SDS011;11062;51.164;16.924;2023-03-01T07:44:14;374.65;;;130.63;;
21800;SDS011;11062;51.164;16.924;2023-03-01T07:47:14;356.08;;;133.32;;
21800;SDS011;11062;51.164;16.924;2023-03-01T07:49:33;341.38;;;124.40;;
21800;SDS011;11062;51.164;16.924;2023-03-01T07:51:59;353.65;;;128.40;;
21800;SDS011;11062;51.164;16.924;2023-03-01T07:54:26;325.38;;;118.53;;
21800;SDS011;11062;51.164;16.924;2023-03-01T07:56:52;330.45;;;122.05;;
21800;SDS011;11062;51.164;16.924;2023-03-01T07:59:19;302.45;;;115.57;;
21800;SDS011;11062;51.164;16.924;2023-03-01T08:01:45;307.40;;;116.63;;
21800;SDS011;11062;51.164;16.924;2023-03-01T08:04:11;325.15;;;122.72;;
21800;SDS011;11062;51.164;16.924;2023-03-01T08:06:38;313.70;;;128.20;;
21800;SDS011;11062;51.164;16.924;2023-03-01T08:09:03;308.35;;;122.57;;
21800;SDS011;11062;51.164;16.924;2023-03-01T08:11:29;321.63;;;126.07;;
21800;SDS011;11062;51.164;16.924;2023-03-01T08:13:55;320.38;;;126.25;;
21800;SDS011;11062;51.164;16.924;2023-03-01T08:16:22;312.45;;;112.50;;
21800;SDS011;11062;51.164;16.924;2023-03-01T08:18:48;310.15;;;113.32;;
21800;SDS011;11062;51.164;16.924;2023-03-01T08:21:15;331.35;;;118.30;;
21800;SDS011;11062;51.164;16.924;2023-03-01T08:23:42;317.10;;;119.15;;
21800;SDS011;11062;51.164;16.924;2023-03-01T08:28:39;316.40;;;112.82;;
21800;SDS011;11062;51.164;16.924;2023-03-01T08:31:15;312.42;;;115.80;;
21800;SDS011;11062;51.164;16.924;2023-03-01T08:33:45;356.35;;;197.85;;
21800;SDS011;11062;51.164;16.924;2023-03-01T08:36:16;349.50;;;154.93;;
21800;SDS011;11062;51.164;16.924;2023-03-01T08:38:43;309.40;;;119.78;;
21800;SDS011;11062;51.164;16.924;2023-03-01T08:41:09;311.50;;;123.55;;
21800;SDS011;11062;51.164;16.924;2023-03-01T08:43:35;318.08;;;118.15;;
21800;SDS011;11062;51.164;16.924;2023-03-01T08:46:00;307.45;;;114.22;;
21800;SDS011;11062;51.164;16.924;2023-03-01T08:48:27;317.10;;;118.40;;
21800;SDS011;11062;51.164;16.924;2023-03-01T08:50:53;304.42;;;114.47;;
21800;SDS011;11062;51.164;16.924;2023-03-01T08:53:19;307.92;;;112.40;;
21800;SDS011;11062;51.164;16.924;2023-03-01T08:55:45;305.67;;;115.32;;
21800;SDS011;11062;51.164;16.924;2023-03-01T08:58:11;305.10;;;114.32;;
21800;SDS011;11062;51.164;16.924;2023-03-01T09:00:37;304.10;;;114.47;;
21800;SDS011;11062;51.164;16.924;2023-03-01T09:03:03;291.40;;;112.57;;
21800;SDS011;11062;51.164;16.924;2023-03-01T09:05:32;304.20;;;114.68;;
21800;SDS011;11062;51.164;16.924;2023-03-01T09:07:59;299.20;;;111.57;;
21800;SDS011;11062;51.164;16.924;2023-03-01T09:10:24;309.10;;;117.07;;
21800;SDS011;11062;51.164;16.924;2023-03-01T09:12:51;280.65;;;108.75;;
21800;SDS011;11062;51.164;16.924;2023-03-01T09:15:17;294.58;;;109.57;;
21800;SDS011;11062;51.164;16.924;2023-03-01T09:17:42;292.05;;;104.95;;
21800;SDS011;11062;51.164;16.924;2023-03-01T09:20:09;286.02;;;106.40;;
21800;SDS011;11062;51.164;16.924;2023-03-01T09:22:35;284.50;;;102.03;;
21800;SDS011;11062;51.164;16.924;2023-03-01T09:25:01;283.08;;;102.13;;
21800;SDS011;11062;51.164;16.924;2023-03-01T09:27:27;291.40;;;105.43;;
21800;SDS011;11062;51.164;16.924;2023-03-01T09:29:52;284.95;;;101.07;;
21800;SDS011;11062;51.164;16.924;2023-03-01T09:32:21;291.50;;;104.28;;
21800;SDS011;11062;51.164;16.924;2023-03-01T09:34:47;281.20;;;99.38;;
21800;SDS011;11062;51.164;16.924;2023-03-01T09:37:41;294.20;;;106.15;;
21800;SDS011;11062;51.164;16.924;2023-03-01T09:40:14;288.17;;;103.93;;
21800;SDS011;11062;51.164;16.924;2023-03-01T09:45:38;284.67;;;102.78;;
21800;SDS011;11062;51.164;16.924;2023-03-01T09:48:12;287.25;;;105.05;;
21800;SDS011;11062;51.164;16.924;2023-03-01T09:50:41;291.23;;;99.25;;
21800;SDS011;11062;51.164;16.924;2023-03-01T09:53:15;295.23;;;101.97;;
21800;SDS011;11062;51.164;16.924;2023-03-01T09:56:02;301.17;;;102.38;;
21800;SDS011;11062;51.164;16.924;2023-03-01T10:01:35;316.48;;;107.20;;
21800;SDS011;11062;51.164;16.924;2023-03-01T10:04:11;308.70;;;106.78;;
21800;SDS011;11062;51.164;16.924;2023-03-01T10:07:05;319.40;;;107.35;;
21800;SDS011;11062;51.164;16.924;2023-03-01T10:09:39;324.42;;;111.30;;
21800;SDS011;11062;51.164;16.924;2023-03-01T10:12:12;308.63;;;107.75;;
21800;SDS011;11062;51.164;16.924;2023-03-01T10:23:08;325.48;;;106.50;;
21800;SDS011;11062;51.164;16.924;2023-03-01T10:28:10;314.08;;;105.78;;
21800;SDS011;11062;51.164;16.924;2023-03-01T10:30:43;316.48;;;106.22;;
21800;SDS011;11062;51.164;16.924;2023-03-01T10:33:29;309.58;;;108.70;;
21800;SDS011;11062;51.164;16.924;2023-03-01T10:35:59;311.95;;;102.95;;
21800;SDS011;11062;51.164;16.924;2023-03-01T10:38:25;320.42;;;105.10;;
21800;SDS011;11062;51.164;16.924;2023-03-01T10:43:23;313.83;;;103.65;;
21800;SDS011;11062;51.164;16.924;2023-03-01T10:45:54;312.90;;;102.72;;
21800;SDS011;11062;51.164;16.924;2023-03-01T10:48:21;315.25;;;102.30;;
21800;SDS011;11062;51.164;16.924;2023-03-01T10:56:09;325.80;;;104.13;;
21800;SDS011;11062;51.164;16.924;2023-03-01T11:01:26;318.55;;;105.93;;
21800;SDS011;11062;51.164;16.924;2023-03-01T11:06:33;306.70;;;106.32;;
21800;SDS011;11062;51.164;16.924;2023-03-01T11:09:19;317.70;;;106.75;;
21800;SDS011;11062;51.164;16.924;2023-03-01T11:11:52;333.98;;;113.22;;
21800;SDS011;11062;51.164;16.924;2023-03-01T11:14:26;330.02;;;109.82;;
21800;SDS011;11062;51.164;16.924;2023-03-01T11:17:01;335.80;;;107.97;;
21800;SDS011;11062;51.164;16.924;2023-03-01T11:19:40;329.77;;;109.50;;
21800;SDS011;11062;51.164;16.924;2023-03-01T11:22:40;334.92;;;115.55;;
21800;SDS011;11062;51.164;16.924;2023-03-01T11:24:59;316.90;;;113.40;;
21800;SDS011;11062;51.164;16.924;2023-03-01T11:27:36;332.73;;;114.25;;
21800;SDS011;11062;51.164;16.924;2023-03-01T11:32:46;345.00;;;121.35;;
21800;SDS011;11062;51.164;16.924;2023-03-01T11:35:23;340.75;;;121.45;;
21800;SDS011;11062;51.164;16.924;2023-03-01T11:38:25;338.42;;;122.18;;
21800;SDS011;11062;51.164;16.924;2023-03-01T11:40:48;340.05;;;122.78;;
21800;SDS011;11062;51.164;16.924;2023-03-01T11:43:33;341.20;;;121.32;;
21800;SDS011;11062;51.164;16.924;2023-03-01T12:10:43;351.92;;;128.60;;
21800;SDS011;11062;51.164;16.924;2023-03-01T12:16:52;360.50;;;143.02;;
21800;SDS011;11062;51.164;16.924;2023-03-01T12:30:46;360.98;;;134.65;;
21800;SDS011;11062;51.164;16.924;2023-03-01T12:36:30;365.15;;;137.18;;
21800;SDS011;11062;51.164;16.924;2023-03-01T12:50:04;354.08;;;135.55;;
21800;SDS011;11062;51.164;16.924;2023-03-01T12:55:18;349.17;;;135.50;;
21800;SDS011;11062;51.164;16.924;2023-03-01T13:03:48;330.17;;;144.20;;
21800;SDS011;11062;51.164;16.924;2023-03-01T13:12:00;371.10;;;163.73;;
21800;SDS011;11062;51.164;16.924;2023-03-01T13:16:58;352.85;;;162.20;;
21800;SDS011;11062;51.164;16.924;2023-03-01T13:19:25;353.52;;;164.30;;
21800;SDS011;11062;51.164;16.924;2023-03-01T13:21:54;342.17;;;166.02;;
21800;SDS011;11062;51.164;16.924;2023-03-01T13:24:37;336.52;;;158.27;;
21800;SDS011;11062;51.164;16.924;2023-03-01T13:29:54;354.00;;;161.73;;
21800;SDS011;11062;51.164;16.924;2023-03-01T13:34:55;401.80;;;176.07;;
21800;SDS011;11062;51.164;16.924;2023-03-01T13:42:46;340.63;;;157.73;;
21800;SDS011;11062;51.164;16.924;2023-03-01T13:45:58;370.42;;;138.73;;
21800;SDS011;11062;51.164;16.924;2023-03-01T13:48:01;345.77;;;138.07;;
21800;SDS011;11062;51.164;16.924;2023-03-01T13:50:35;372.25;;;143.68;;
21800;SDS011;11062;51.164;16.924;2023-03-01T13:53:21;344.00;;;136.90;;
21800;SDS011;11062;51.164;16.924;2023-03-01T13:55:55;349.63;;;140.57;;
21800;SDS011;11062;51.164;16.924;2023-03-01T13:58:26;345.58;;;133.10;;
21800;SDS011;11062;51.164;16.924;2023-03-01T14:01:01;348.65;;;147.73;;
21800;SDS011;11062;51.164;16.924;2023-03-01T14:03:32;335.45;;;138.88;;
21800;SDS011;11062;51.164;16.924;2023-03-01T14:08:34;337.48;;;145.35;;
21800;SDS011;11062;51.164;16.924;2023-03-01T14:19:25;341.70;;;147.30;;
21800;SDS011;11062;51.164;16.924;2023-03-01T14:21:59;362.00;;;155.38;;
21800;SDS011;11062;51.164;16.924;2023-03-01T14:24:48;352.90;;;155.85;;
21800;SDS011;11062;51.164;16.924;2023-03-01T14:27:17;344.13;;;148.00;;
21800;SDS011;11062;51.164;16.924;2023-03-01T14:29:44;350.70;;;150.10;;
21800;SDS011;11062;51.164;16.924;2023-03-01T14:32:20;349.40;;;144.82;;
21800;SDS011;11062;51.164;16.924;2023-03-01T14:34:50;347.00;;;150.32;;
21800;SDS011;11062;51.164;16.924;2023-03-01T14:39:47;342.30;;;151.30;;
21800;SDS011;11062;51.164;16.924;2023-03-01T14:42:14;341.50;;;150.88;;
21800;SDS011;11062;51.164;16.924;2023-03-01T14:44:45;351.27;;;147.90;;
21800;SDS011;11062;51.164;16.924;2023-03-01T14:47:14;355.83;;;147.98;;
21800;SDS011;11062;51.164;16.924;2023-03-01T14:49:49;354.25;;;151.60;;
21800;SDS011;11062;51.164;16.924;2023-03-01T14:52:21;353.35;;;143.20;;
21800;SDS011;11062;51.164;16.924;2023-03-01T14:54:54;357.80;;;158.10;;
21800;SDS011;11062;51.164;16.924;2023-03-01T14:57:24;346.85;;;154.02;;
21800;SDS011;11062;51.164;16.924;2023-03-01T14:59:51;346.02;;;152.57;;
21800;SDS011;11062;51.164;16.924;2023-03-01T15:02:24;343.58;;;147.77;;
21800;SDS011;11062;51.164;16.924;2023-03-01T15:04:54;349.48;;;149.95;;
21800;SDS011;11062;51.164;16.924;2023-03-01T15:07:24;347.60;;;149.27;;
21800;SDS011;11062;51.164;16.924;2023-03-01T15:09:54;356.27;;;145.02;;
21800;SDS011;11062;51.164;16.924;2023-03-01T15:12:39;352.50;;;137.88;;
21800;SDS011;11062;51.164;16.924;2023-03-01T15:15:19;338.58;;;133.25;;
21800;SDS011;11062;51.164;16.924;2023-03-01T15:17:50;359.00;;;138.25;;
21800;SDS011;11062;51.164;16.924;2023-03-01T15:20:23;352.10;;;138.20;;
21800;SDS011;11062;51.164;16.924;2023-03-01T15:22:54;342.75;;;128.82;;
21800;SDS011;11062;51.164;16.924;2023-03-01T15:25:22;340.02;;;130.63;;
21800;SDS011;11062;51.164;16.924;2023-03-01T15:27:52;345.77;;;127.57;;
21800;SDS011;11062;51.164;16.924;2023-03-01T15:30:22;368.75;;;128.07;;
21800;SDS011;11062;51.164;16.924;2023-03-01T15:33:47;347.38;;;125.25;;
21800;SDS011;11062;51.164;16.924;2023-03-01T15:35:53;341.13;;;125.65;;
21800;SDS011;11062;51.164;16.924;2023-03-01T15:38:35;348.70;;;120.65;;
21800;SDS011;11062;51.164;16.924;2023-03-01T15:41:25;349.48;;;121.20;;
21800;SDS011;11062;51.164;16.924;2023-03-01T15:44:24;347.13;;;120.43;;
21800;SDS011;11062;51.164;16.924;2023-03-01T15:46:55;367.52;;;124.38;;
21800;SDS011;11062;51.164;16.924;2023-03-01T15:51:56;333.27;;;117.85;;
21800;SDS011;11062;51.164;16.924;2023-03-01T15:54:23;354.45;;;120.40;;
21800;SDS011;11062;51.164;16.924;2023-03-01T15:56:51;344.58;;;121.65;;
21800;SDS011;11062;51.164;16.924;2023-03-01T15:59:16;326.10;;;120.32;;
21800;SDS011;11062;51.164;16.924;2023-03-01T16:01:43;330.25;;;118.85;;
21800;SDS011;11062;51.164;16.924;2023-03-01T16:04:10;332.35;;;119.03;;
21800;SDS011;11062;51.164;16.924;2023-03-01T16:06:45;343.48;;;119.93;;
21800;SDS011;11062;51.164;16.924;2023-03-01T16:15:16;299.45;;;111.40;;
21800;SDS011;11062;51.164;16.924;2023-03-01T16:17:56;293.85;;;118.90;;
21800;SDS011;11062;51.164;16.924;2023-03-01T16:20:49;23.77;;;13.07;;
21800;SDS011;11062;51.164;16.924;2023-03-01T16:23:15;30.77;;;14.00;;
21800;SDS011;11062;51.164;16.924;2023-03-01T16:25:46;306.15;;;105.47;;
21800;SDS011;11062;51.164;16.924;2023-03-01T16:28:13;311.83;;;106.63;;
21800;SDS011;11062;51.164;16.924;2023-03-01T16:30:39;322.50;;;107.30;;